This is the latest recevied weather packets stored in our database for station/object KE7TOP-15. If no packets are shown the sender has not sent any weather packets the latest 10 day(s).
| Time | Temp. | Humidity | Pressure | Rain* | Wind** | Luminosity | Snow |
|---|---|---|---|---|---|---|---|
| 1777417820 | 15.56° C | 28% | 1018.8 hPa | 0 mm | - | 554 W/m² | - |
| 1777413018 | 12.78° C | 35% | 1019.9 hPa | 0 mm | - | 211 W/m² | - |
| 1777411216 | 13.33° C | 35% | 1019.9 hPa | 0 mm | - | 122 W/m² | - |
| 1777409445 | 14.44° C | 33% | 1019.8 hPa | 0 mm | - | 270 W/m² | - |
| 1777407623 | 15.56° C | 22% | 1019.7 hPa | 0 mm | - | 573 W/m² | - |
| 1777402244 | 14.44° C | 32% | 1020.4 hPa | 0 mm | - | 363 W/m² | - |
| 1777401624 | 13.89° C | 32% | 1020.7 hPa | 0 mm | - | 826 W/m² | - |
| 1777399221 | 12.78° C | 35% | 1020.7 hPa | 0 mm | - | 720 W/m² | - |
| 1777396264 | 12.22° C | 39% | 1020.9 hPa | 0 mm | - | 594 W/m² | - |
| 1777392618 | 8.89° C | 54% | 1021 hPa | 0 mm | - | 424 W/m² | - |
| 1777384216 | -2.78° C | 94% | 1020.4 hPa | 0 mm | - | 24 W/m² | - |
| 1777378819 | -2.22° C | 92% | 1019.4 hPa | 0 mm | - | 0 W/m² | - |
| 1777375823 | -2.22° C | 92% | 1019.2 hPa | 0 mm | - | 0 W/m² | - |
| 1777342221 | 10° C | 47% | 1016 hPa | 0 mm | - | 29 W/m² | - |
| 1777341620 | 10° C | 45% | 1015.9 hPa | 0 mm | - | 60 W/m² | - |
| 1777339816 | 11.11° C | 41% | 1015.6 hPa | 0 mm | - | 124 W/m² | - |
| 1777336820 | 11.67° C | 32% | 1015.2 hPa | 0 mm | - | 84 W/m² | - |
| 1777336220 | 11.67° C | 30% | 1015.1 hPa | 0 mm | - | 163 W/m² | - |
| 1777335018 | 13.33° C | 27% | 1014.7 hPa | 0 mm | - | 279 W/m² | - |
| 1777330257 | 11.67° C | 33% | 1014.7 hPa | 0 mm | - | 475 W/m² | - |
| 1777328424 | 11.67° C | 33% | 1014.7 hPa | 0 mm | - | 180 W/m² | - |
| 1777320024 | 11.11° C | 32% | 1015.2 hPa | 0 mm | - | 949 W/m² | - |
| 1777318221 | 9.44° C | 39% | 1015.3 hPa | 0 mm | - | 364 W/m² | - |
| 1777317621 | 9.44° C | 40% | 1015.4 hPa | 0 mm | - | 366 W/m² | - |
| 1777314025 | 7.22° C | 46% | 1015.5 hPa | 0 mm | - | 195 W/m² | - |
* Rain latest hour (hover to see other rain measurements)
** Current wind speed in m/s (hover to see current wind gust speed)